createdAt,value
2023-03-17T00:00:53.792Z,20.38
2023-03-17T00:03:26.615Z,20.37
2023-03-17T00:05:59.790Z,20.36
2023-03-17T00:08:32.662Z,20.35
2023-03-17T00:11:05.750Z,20.34
2023-03-17T00:13:38.628Z,20.34
2023-03-17T00:16:11.769Z,20.33
2023-03-17T00:18:44.648Z,20.32
2023-03-17T00:21:17.491Z,20.32
2023-03-17T00:23:50.841Z,20.30
2023-03-17T00:26:23.837Z,20.30
2023-03-17T00:28:57.009Z,20.29
2023-03-17T00:31:30.889Z,20.28
2023-03-17T00:34:03.869Z,20.28
2023-03-17T00:36:36.814Z,20.27
2023-03-17T00:39:09.785Z,20.27
2023-03-17T00:41:42.696Z,20.26
2023-03-17T00:44:15.861Z,20.26
2023-03-17T00:46:49.062Z,20.25
2023-03-17T00:49:21.994Z,20.25
2023-03-17T00:51:54.855Z,20.24
2023-03-17T00:54:27.861Z,20.24
2023-03-17T00:57:00.869Z,20.23
2023-03-17T00:59:37.868Z,20.23
2023-03-17T01:02:10.676Z,20.22
2023-03-17T01:04:47.560Z,20.21
2023-03-17T01:07:16.874Z,20.20
2023-03-17T01:09:49.899Z,20.19
2023-03-17T01:12:23.071Z,20.19
2023-03-17T01:14:57.128Z,20.18
2023-03-17T01:17:30.896Z,20.18
2023-03-17T01:20:04.000Z,20.18
2023-03-17T01:22:36.639Z,20.18
2023-03-17T01:25:09.642Z,20.17
2023-03-17T01:27:42.873Z,20.17
2023-03-17T01:30:15.589Z,20.16
2023-03-17T01:32:49.011Z,20.16
2023-03-17T01:35:22.119Z,20.16
2023-03-17T01:37:55.870Z,20.15
2023-03-17T01:40:29.138Z,20.15
2023-03-17T01:43:01.906Z,20.15
2023-03-17T01:45:34.945Z,20.14
2023-03-17T01:48:07.725Z,20.13
2023-03-17T01:50:40.790Z,20.13
2023-03-17T01:53:13.639Z,20.12
2023-03-17T01:55:46.815Z,20.12
2023-03-17T01:58:19.640Z,20.11
2023-03-17T02:00:52.695Z,20.11
2023-03-17T02:03:25.764Z,20.10
2023-03-17T02:05:58.996Z,20.09
2023-03-17T02:08:31.778Z,20.09
2023-03-17T02:11:04.725Z,20.08
2023-03-17T02:13:37.886Z,20.08
2023-03-17T02:16:10.668Z,20.07
2023-03-17T02:18:44.186Z,20.06
2023-03-17T02:21:17.964Z,20.06
2023-03-17T02:23:56.561Z,20.05
2023-03-17T02:26:29.918Z,20.05
2023-03-17T02:29:03.203Z,20.04
2023-03-17T02:31:37.049Z,20.04
2023-03-17T02:34:10.059Z,20.03
2023-03-17T02:36:43.193Z,20.03
2023-03-17T02:39:17.013Z,20.02
2023-03-17T02:41:49.860Z,20.02
2023-03-17T02:44:22.823Z,20.02
2023-03-17T02:46:55.956Z,20.01
2023-03-17T02:49:29.277Z,20.01
2023-03-17T02:52:03.181Z,20.00
2023-03-17T02:54:36.879Z,20.00
2023-03-17T02:57:09.938Z,20.00
2023-03-17T02:59:42.791Z,19.99
2023-03-17T03:02:15.785Z,19.99
2023-03-17T03:04:48.858Z,19.98
2023-03-17T03:07:21.775Z,19.98
2023-03-17T03:09:55.093Z,19.97
2023-03-17T03:12:28.122Z,19.96
2023-03-17T03:15:01.154Z,19.96
2023-03-17T03:17:33.768Z,19.96
2023-03-17T03:20:06.878Z,19.95
2023-03-17T03:22:39.789Z,19.95
2023-03-17T03:25:12.937Z,19.94
2023-03-17T03:27:46.002Z,19.94
2023-03-17T03:30:25.052Z,19.94
2023-03-17T03:32:57.972Z,19.93
2023-03-17T03:35:31.249Z,19.93
2023-03-17T03:38:04.102Z,19.92
2023-03-17T03:40:37.091Z,19.91
2023-03-17T03:43:21.927Z,19.91
2023-03-17T03:45:43.192Z,19.91
2023-03-17T03:48:16.133Z,19.90
2023-03-17T03:50:49.120Z,19.90
2023-03-17T03:53:21.826Z,19.89
2023-03-17T03:55:55.172Z,19.89
2023-03-17T03:58:28.289Z,19.88
2023-03-17T04:01:02.061Z,19.88
2023-03-17T04:03:35.200Z,19.88
2023-03-17T04:06:07.997Z,19.87
2023-03-17T04:08:40.851Z,19.87
2023-03-17T04:11:14.214Z,19.86
2023-03-17T04:13:47.020Z,19.86
2023-03-17T04:16:33.965Z,19.85
2023-03-17T04:19:07.203Z,19.85
2023-03-17T04:21:39.868Z,19.84
2023-03-17T04:24:12.977Z,19.84
2023-03-17T04:26:46.199Z,19.84
2023-03-17T04:29:18.895Z,19.83
2023-03-17T04:31:52.118Z,19.83
2023-03-17T04:34:25.038Z,19.82
2023-03-17T04:36:58.239Z,19.82
2023-03-17T04:39:30.984Z,19.81
2023-03-17T04:42:04.194Z,19.81
2023-03-17T04:44:37.238Z,19.80
2023-03-17T04:47:10.365Z,19.80
2023-03-17T04:49:44.238Z,19.79
2023-03-17T04:52:17.275Z,19.79
2023-03-17T04:54:50.307Z,19.79
2023-03-17T04:57:22.967Z,19.78
2023-03-17T04:59:56.101Z,19.78
2023-03-17T05:02:29.209Z,19.77
2023-03-17T05:05:02.072Z,19.77
2023-03-17T05:07:35.358Z,19.77
2023-03-17T05:10:09.015Z,19.76
2023-03-17T05:12:42.101Z,19.76
2023-03-17T05:15:15.278Z,19.76
2023-03-17T05:17:48.062Z,19.75
2023-03-17T05:20:27.373Z,19.75
2023-03-17T05:23:00.286Z,19.74
2023-03-17T05:25:33.311Z,19.74
2023-03-17T05:28:06.137Z,19.73
2023-03-17T05:30:39.321Z,19.73
2023-03-17T05:33:12.032Z,19.72
2023-03-17T05:35:45.093Z,19.72
2023-03-17T05:38:18.353Z,19.72
2023-03-17T05:40:51.317Z,19.72
2023-03-17T05:43:23.958Z,19.72
2023-03-17T05:45:57.129Z,19.72
2023-03-17T05:48:30.071Z,19.72
2023-03-17T05:51:03.191Z,19.71
2023-03-17T05:53:36.190Z,19.70
2023-03-17T05:56:09.320Z,19.69
2023-03-17T05:58:42.042Z,19.68
2023-03-17T06:01:15.407Z,19.67
2023-03-17T06:03:48.408Z,19.66
2023-03-17T06:06:21.048Z,19.65
2023-03-17T06:08:54.403Z,19.64
2023-03-17T06:11:27.118Z,19.63
2023-03-17T06:14:00.397Z,19.63
2023-03-17T06:16:33.430Z,19.62
2023-03-17T06:19:06.101Z,19.62
2023-03-17T06:21:39.305Z,19.61
2023-03-17T06:24:12.068Z,19.61
2023-03-17T06:26:45.143Z,19.60
2023-03-17T06:29:18.056Z,19.60
2023-03-17T06:31:51.110Z,19.59
2023-03-17T06:34:24.353Z,19.59
2023-03-17T06:37:11.322Z,19.59
2023-03-17T06:39:44.207Z,19.58
2023-03-17T06:42:17.480Z,19.58
2023-03-17T06:44:50.168Z,19.58
2023-03-17T06:47:27.339Z,19.57
2023-03-17T06:50:00.059Z,19.57
2023-03-17T06:52:33.417Z,19.57
2023-03-17T06:55:06.308Z,19.56
2023-03-17T06:57:39.426Z,19.56
2023-03-17T07:00:12.481Z,19.56
2023-03-17T07:02:45.215Z,19.56
2023-03-17T07:05:18.088Z,19.55
2023-03-17T07:07:51.130Z,19.55
2023-03-17T07:10:24.159Z,19.55
2023-03-17T07:12:57.241Z,19.55
2023-03-17T07:15:30.444Z,19.55
2023-03-17T07:18:03.211Z,19.55
2023-03-17T07:20:36.555Z,19.54
2023-03-17T07:23:10.484Z,19.54
2023-03-17T07:25:43.308Z,19.54
2023-03-17T07:28:16.249Z,19.54
2023-03-17T07:30:49.658Z,19.54
2023-03-17T07:33:23.649Z,19.53
2023-03-17T07:35:57.538Z,19.53
2023-03-17T07:38:30.451Z,19.53
2023-03-17T07:41:03.375Z,19.53
2023-03-17T07:43:36.489Z,19.53
2023-03-17T07:46:09.487Z,19.53
2023-03-17T07:48:42.341Z,19.53
2023-03-17T07:51:15.539Z,19.53
2023-03-17T07:53:48.288Z,19.53
2023-03-17T07:56:21.244Z,19.53
2023-03-17T07:58:54.415Z,19.53
2023-03-17T08:01:27.430Z,19.53
2023-03-17T08:04:00.775Z,19.53
2023-03-17T08:06:34.471Z,19.53
2023-03-17T08:09:07.475Z,19.53
2023-03-17T08:11:40.487Z,19.53
2023-03-17T08:14:20.229Z,19.53
2023-03-17T08:16:53.644Z,19.53
2023-03-17T08:19:26.575Z,19.53
2023-03-17T08:21:59.491Z,19.53
2023-03-17T08:24:32.244Z,19.53
2023-03-17T08:27:05.620Z,19.53
2023-03-17T08:29:38.228Z,19.53
2023-03-17T08:32:11.752Z,19.53
2023-03-17T08:34:45.539Z,19.53
2023-03-17T08:37:18.589Z,19.53
2023-03-17T08:39:51.351Z,19.53
2023-03-17T08:42:24.575Z,19.53
2023-03-17T08:44:57.274Z,19.54
2023-03-17T08:47:30.242Z,19.54
2023-03-17T08:50:03.374Z,19.54
2023-03-17T08:52:36.248Z,19.54
2023-03-17T08:55:09.385Z,19.54
2023-03-17T08:57:42.392Z,19.54
2023-03-17T09:00:15.588Z,19.54
2023-03-17T09:02:48.515Z,19.54
2023-03-17T09:05:24.475Z,19.54
2023-03-17T09:07:57.491Z,19.54
2023-03-17T09:10:30.914Z,19.54
2023-03-17T09:13:03.815Z,19.54
2023-03-17T09:15:37.584Z,19.54
2023-03-17T09:18:10.436Z,19.55
2023-03-17T09:20:43.474Z,19.55
2023-03-17T09:23:16.411Z,19.55
2023-03-17T09:25:49.597Z,19.56
2023-03-17T09:28:22.693Z,19.56
2023-03-17T09:30:55.517Z,19.56
2023-03-17T09:33:28.456Z,19.56
2023-03-17T09:36:01.512Z,19.56
2023-03-17T09:38:34.350Z,19.56
2023-03-17T09:41:07.787Z,19.56
2023-03-17T09:43:41.533Z,19.57
2023-03-17T09:46:14.483Z,19.57
2023-03-17T09:48:47.412Z,19.57
2023-03-17T09:51:20.651Z,19.57
2023-03-17T09:53:53.338Z,19.57
2023-03-17T09:56:26.691Z,19.57
2023-03-17T09:58:59.614Z,19.58
2023-03-17T10:01:32.795Z,19.58
2023-03-17T10:04:05.612Z,19.58
2023-03-17T10:06:38.432Z,19.59
2023-03-17T10:09:11.685Z,19.59
2023-03-17T10:11:44.650Z,19.59
2023-03-17T10:14:17.715Z,19.60
2023-03-17T10:16:50.401Z,19.60
2023-03-17T10:19:23.519Z,19.60
2023-03-17T10:21:56.520Z,19.61
2023-03-17T10:24:43.436Z,19.61
2023-03-17T10:27:16.759Z,19.61
2023-03-17T10:29:49.552Z,19.62
2023-03-17T10:32:22.628Z,19.62
2023-03-17T10:34:55.510Z,19.62
2023-03-17T10:37:28.739Z,19.62
2023-03-17T10:40:01.553Z,19.62
2023-03-17T10:42:34.508Z,19.63
2023-03-17T10:45:07.644Z,19.63
2023-03-17T10:47:40.428Z,19.63
2023-03-17T10:50:13.905Z,19.63
2023-03-17T10:52:47.553Z,19.63
2023-03-17T10:55:20.709Z,19.63
2023-03-17T10:57:53.958Z,19.64
2023-03-17T11:00:27.557Z,19.64
2023-03-17T11:03:00.555Z,19.64
2023-03-17T11:05:33.773Z,19.64
2023-03-17T11:08:06.691Z,19.64
2023-03-17T11:10:39.460Z,19.64
2023-03-17T11:13:12.862Z,19.64
2023-03-17T11:15:45.778Z,19.64
2023-03-17T11:18:18.778Z,19.64
2023-03-17T11:20:51.766Z,19.64
2023-03-17T11:23:24.567Z,19.65
2023-03-17T11:25:57.837Z,19.65
2023-03-17T11:28:30.849Z,19.65
2023-03-17T11:31:03.783Z,19.65
2023-03-17T11:33:36.678Z,19.65
2023-03-17T11:36:09.737Z,19.66
2023-03-17T11:38:42.845Z,19.66
2023-03-17T11:41:15.613Z,19.66
2023-03-17T11:43:48.625Z,19.66
2023-03-17T11:46:22.142Z,19.66
2023-03-17T11:48:55.877Z,19.67
2023-03-17T11:51:28.635Z,19.67
2023-03-17T11:54:01.695Z,19.67
2023-03-17T11:56:38.722Z,19.67
2023-03-17T11:59:11.700Z,19.67
2023-03-17T12:01:44.838Z,19.67
2023-03-17T12:04:18.023Z,19.67
2023-03-17T12:06:51.568Z,19.67
2023-03-17T12:09:24.835Z,19.68
2023-03-17T12:11:58.865Z,19.68
2023-03-17T12:14:31.851Z,19.69
2023-03-17T12:17:04.933Z,19.70
2023-03-17T12:19:38.020Z,19.71
2023-03-17T12:22:11.995Z,19.72
2023-03-17T12:24:44.854Z,19.73
2023-03-17T12:27:17.890Z,19.75
2023-03-17T12:29:50.874Z,19.76
2023-03-17T12:32:23.876Z,19.78
2023-03-17T12:34:57.445Z,19.80
2023-03-17T12:37:29.969Z,19.82
2023-03-17T12:40:02.918Z,19.84
2023-03-17T12:42:35.903Z,19.86
2023-03-17T12:45:08.907Z,19.88
2023-03-17T12:47:41.892Z,19.90
2023-03-17T12:50:14.864Z,19.92
2023-03-17T12:52:47.897Z,19.93
2023-03-17T12:55:20.674Z,19.95
2023-03-17T12:57:53.707Z,19.97
2023-03-17T13:00:26.687Z,19.98
2023-03-17T13:02:59.769Z,20.00
2023-03-17T13:05:33.443Z,20.01
2023-03-17T13:08:05.814Z,20.03
2023-03-17T13:10:38.983Z,20.04
2023-03-17T13:13:11.902Z,20.05
2023-03-17T13:15:44.686Z,20.07
2023-03-17T13:18:17.826Z,20.08
2023-03-17T13:20:50.782Z,20.09
2023-03-17T13:23:23.704Z,20.11
2023-03-17T13:25:56.724Z,20.12
2023-03-17T13:28:29.783Z,20.13
2023-03-17T13:31:03.111Z,20.14
2023-03-17T13:33:35.982Z,20.15
2023-03-17T13:36:09.173Z,20.16
2023-03-17T13:38:43.149Z,20.17
2023-03-17T13:41:16.970Z,20.18
2023-03-17T13:43:49.955Z,20.19
2023-03-17T13:46:22.755Z,20.20
2023-03-17T13:48:56.178Z,20.21
2023-03-17T13:51:30.016Z,20.22
2023-03-17T13:54:02.715Z,20.23
2023-03-17T13:56:35.861Z,20.23
2023-03-17T13:59:09.079Z,20.24
2023-03-17T14:01:41.751Z,20.25
2023-03-17T14:04:14.891Z,20.26
2023-03-17T14:06:47.730Z,20.26
2023-03-17T14:09:20.729Z,20.27
2023-03-17T14:11:54.060Z,20.28
2023-03-17T14:14:33.047Z,20.28
2023-03-17T14:17:05.916Z,20.29
2023-03-17T14:19:38.746Z,20.29
2023-03-17T14:22:12.092Z,20.30
2023-03-17T14:24:44.867Z,20.30
2023-03-17T14:27:17.779Z,20.30
2023-03-17T14:29:52.971Z,20.30
2023-03-17T14:32:25.911Z,20.30
2023-03-17T14:34:59.078Z,20.30
2023-03-17T14:37:31.880Z,20.30
2023-03-17T14:40:04.963Z,20.30
2023-03-17T14:42:37.906Z,20.31
2023-03-17T14:45:10.927Z,20.31
2023-03-17T14:47:43.889Z,20.32
2023-03-17T14:50:16.793Z,20.32
2023-03-17T14:52:49.844Z,20.32
2023-03-17T14:55:22.827Z,20.33
2023-03-17T14:57:55.820Z,20.33
2023-03-17T15:00:29.087Z,20.33
2023-03-17T15:03:02.102Z,20.34
2023-03-17T15:05:34.934Z,20.34
2023-03-17T15:08:08.346Z,20.34
2023-03-17T15:10:42.216Z,20.35
2023-03-17T15:13:15.212Z,20.35
2023-03-17T15:15:48.044Z,20.36
2023-03-17T15:18:24.055Z,20.36
2023-03-17T15:20:56.861Z,20.37
2023-03-17T15:23:30.042Z,20.37
2023-03-17T15:26:02.997Z,20.37
2023-03-17T15:28:36.180Z,20.38
2023-03-17T15:31:09.308Z,20.38
2023-03-17T15:33:42.160Z,20.38
2023-03-17T15:36:25.602Z,20.39
2023-03-17T15:38:48.168Z,20.39
2023-03-17T15:41:20.852Z,20.40
2023-03-17T15:43:53.934Z,20.40
2023-03-17T15:46:27.224Z,20.40
2023-03-17T15:48:59.881Z,20.40
2023-03-17T15:51:33.408Z,20.41
2023-03-17T15:54:07.031Z,20.41
2023-03-17T15:56:39.909Z,20.41
2023-03-17T15:59:13.278Z,20.41
2023-03-17T16:01:46.382Z,20.41
2023-03-17T16:04:18.939Z,20.42
2023-03-17T16:06:51.905Z,20.42
2023-03-17T16:09:25.003Z,20.42
2023-03-17T16:11:58.231Z,20.42
2023-03-17T16:14:31.279Z,20.43
2023-03-17T16:17:04.336Z,20.43
2023-03-17T16:19:37.209Z,20.43
2023-03-17T16:22:10.033Z,20.44
2023-03-17T16:24:43.307Z,20.44
2023-03-17T16:27:30.214Z,20.44
2023-03-17T16:30:03.362Z,20.44
2023-03-17T16:32:36.100Z,20.45
2023-03-17T16:35:09.256Z,20.45
2023-03-17T16:37:42.064Z,20.45
2023-03-17T16:40:15.311Z,20.45
2023-03-17T16:42:48.265Z,20.45
2023-03-17T16:45:21.474Z,20.45
2023-03-17T16:47:55.221Z,20.46
2023-03-17T16:50:28.272Z,20.46
2023-03-17T16:53:01.261Z,20.47
2023-03-17T16:55:34.326Z,20.47
2023-03-17T16:58:07.022Z,20.48
2023-03-17T17:00:40.057Z,20.48
2023-03-17T17:03:13.103Z,20.48
2023-03-17T17:05:46.078Z,20.48
2023-03-17T17:08:19.257Z,20.49
2023-03-17T17:10:52.461Z,20.49
2023-03-17T17:13:26.215Z,20.49
2023-03-17T17:15:59.338Z,20.49
2023-03-17T17:18:32.406Z,20.49
2023-03-17T17:21:05.304Z,20.49
2023-03-17T17:23:38.475Z,20.49
2023-03-17T17:26:12.405Z,20.50
2023-03-17T17:28:45.303Z,20.50
2023-03-17T17:31:18.095Z,20.50
2023-03-17T17:33:51.285Z,20.50
2023-03-17T17:36:24.130Z,20.50
2023-03-17T17:38:57.046Z,20.50
2023-03-17T17:41:32.539Z,20.50
2023-03-17T17:44:03.302Z,20.50
2023-03-17T17:46:36.407Z,20.50
2023-03-17T17:49:09.432Z,20.51
2023-03-17T17:51:42.423Z,20.51
2023-03-17T17:54:15.340Z,20.51
2023-03-17T17:56:48.361Z,20.51
2023-03-17T17:59:21.094Z,20.51
2023-03-17T18:01:54.089Z,20.51
2023-03-17T18:04:27.483Z,20.51
2023-03-17T18:07:00.129Z,20.51
2023-03-17T18:09:33.251Z,20.51
2023-03-17T18:12:06.452Z,20.51
2023-03-17T18:14:39.068Z,20.52
2023-03-17T18:17:12.533Z,20.52
2023-03-17T18:19:45.078Z,20.52
2023-03-17T18:22:18.092Z,20.52
2023-03-17T18:24:51.228Z,20.52
2023-03-17T18:27:24.116Z,20.52
2023-03-17T18:29:57.161Z,20.53
2023-03-17T18:32:30.427Z,20.53
2023-03-17T18:35:03.146Z,20.53
2023-03-17T18:37:36.121Z,20.53
2023-03-17T18:40:14.627Z,20.53
2023-03-17T18:42:42.302Z,20.53
2023-03-17T18:45:15.227Z,20.53
2023-03-17T18:47:48.331Z,20.53
2023-03-17T18:50:35.317Z,20.53
2023-03-17T18:53:08.226Z,20.53
2023-03-17T18:55:41.454Z,20.54
2023-03-17T18:58:14.444Z,20.54
2023-03-17T19:00:47.504Z,20.54
2023-03-17T19:03:20.189Z,20.54
2023-03-17T19:05:53.161Z,20.54
2023-03-17T19:08:26.283Z,20.54
2023-03-17T19:10:59.407Z,20.54
2023-03-17T19:13:32.675Z,20.54
2023-03-17T19:16:06.455Z,20.54
2023-03-17T19:18:41.825Z,20.54
2023-03-17T19:21:12.614Z,20.54
2023-03-17T19:23:46.455Z,20.55
2023-03-17T19:26:19.439Z,20.55
2023-03-17T19:28:52.531Z,20.55
2023-03-17T19:31:25.557Z,20.55
2023-03-17T19:33:58.312Z,20.55
2023-03-17T19:36:31.169Z,20.55
2023-03-17T19:39:04.195Z,20.56
2023-03-17T19:41:37.309Z,20.56
2023-03-17T19:44:10.799Z,20.57
2023-03-17T19:46:44.425Z,20.57
2023-03-17T19:49:17.250Z,20.58
2023-03-17T19:51:50.462Z,20.58
2023-03-17T19:54:23.510Z,20.59
2023-03-17T19:56:56.368Z,20.59
2023-03-17T19:59:29.676Z,20.58
2023-03-17T20:02:03.500Z,20.58
2023-03-17T20:04:36.435Z,20.58
2023-03-17T20:07:09.286Z,20.57
2023-03-17T20:09:42.263Z,20.57
2023-03-17T20:12:15.276Z,20.57
2023-03-17T20:14:48.284Z,20.57
2023-03-17T20:17:21.522Z,20.57
2023-03-17T20:19:54.636Z,20.57
2023-03-17T20:22:27.570Z,20.58
2023-03-17T20:25:00.581Z,20.58
2023-03-17T20:27:33.570Z,20.58
2023-03-17T20:30:06.564Z,20.59
2023-03-17T20:32:39.369Z,20.59
2023-03-17T20:35:12.597Z,20.59
2023-03-17T20:37:45.570Z,20.59
2023-03-17T20:40:18.562Z,20.60
2023-03-17T20:42:51.381Z,20.60
2023-03-17T20:45:24.595Z,20.60
2023-03-17T20:47:57.341Z,20.60
2023-03-17T20:50:31.022Z,20.60
2023-03-17T20:53:03.848Z,20.60
2023-03-17T20:55:37.760Z,20.61
2023-03-17T20:58:11.644Z,20.61
2023-03-17T21:00:44.788Z,20.61
2023-03-17T21:03:18.704Z,20.61
2023-03-17T21:05:51.649Z,20.61
2023-03-17T21:08:24.643Z,20.61
2023-03-17T21:10:57.693Z,20.61
2023-03-17T21:13:30.656Z,20.61
2023-03-17T21:16:03.663Z,20.61
2023-03-17T21:18:36.724Z,20.61
2023-03-17T21:21:09.656Z,20.61
2023-03-17T21:23:42.492Z,20.61
2023-03-17T21:26:15.547Z,20.61
2023-03-17T21:28:48.737Z,20.61
2023-03-17T21:31:21.737Z,20.62
2023-03-17T21:33:54.694Z,20.62
2023-03-17T21:36:27.813Z,20.62
2023-03-17T21:39:00.431Z,20.62
2023-03-17T21:41:33.712Z,20.62
2023-03-17T21:44:06.410Z,20.63
2023-03-17T21:46:39.777Z,20.63
2023-03-17T21:49:12.380Z,20.63
2023-03-17T21:51:45.596Z,20.64
2023-03-17T21:54:18.858Z,20.64
2023-03-17T21:56:52.731Z,20.64
2023-03-17T21:59:25.561Z,20.64
2023-03-17T22:01:58.585Z,20.64
2023-03-17T22:04:31.762Z,20.65
2023-03-17T22:07:04.770Z,20.65
2023-03-17T22:09:37.776Z,20.64
2023-03-17T22:12:10.693Z,20.63
2023-03-17T22:14:43.748Z,20.63
2023-03-17T22:17:16.718Z,20.62
2023-03-17T22:19:49.826Z,20.61
2023-03-17T22:22:22.807Z,20.61
2023-03-17T22:24:55.858Z,20.61
2023-03-17T22:27:28.803Z,20.60
2023-03-17T22:30:01.780Z,20.59
2023-03-17T22:32:34.637Z,20.58
2023-03-17T22:35:08.040Z,20.58
2023-03-17T22:37:41.886Z,20.57
2023-03-17T22:40:14.802Z,20.56
2023-03-17T22:43:01.551Z,20.55
2023-03-17T22:45:34.885Z,20.55
2023-03-17T22:48:07.568Z,20.54
2023-03-17T22:50:40.948Z,20.53
2023-03-17T22:53:14.792Z,20.52
2023-03-17T22:55:48.004Z,20.52
2023-03-17T22:58:21.805Z,20.51
2023-03-17T23:00:54.906Z,20.50
2023-03-17T23:03:27.604Z,20.50
2023-03-17T23:06:00.609Z,20.49
2023-03-17T23:08:33.805Z,20.49
2023-03-17T23:11:07.035Z,20.48
2023-03-17T23:13:40.798Z,20.47
2023-03-17T23:16:13.798Z,20.47
2023-03-17T23:18:47.182Z,20.46
2023-03-17T23:21:19.864Z,20.45
2023-03-17T23:23:52.572Z,20.44
2023-03-17T23:26:25.924Z,20.44
2023-03-17T23:28:58.727Z,20.44
2023-03-17T23:31:31.723Z,20.43
2023-03-17T23:34:04.871Z,20.43
2023-03-17T23:36:37.892Z,20.42
2023-03-17T23:39:10.766Z,20.41
2023-03-17T23:41:43.672Z,20.40
2023-03-17T23:44:16.561Z,20.40
2023-03-17T23:46:49.921Z,20.39
2023-03-17T23:49:22.616Z,20.38
2023-03-17T23:51:55.672Z,20.38
2023-03-17T23:54:28.979Z,20.37
2023-03-17T23:57:01.710Z,20.37
2023-03-17T23:59:34.671Z,20.36
